TSG293 FCBB-FEFF
Flight info
| Callsign | TSG293 |
|---|---|
| Flight time | N/A |
| Altitude | 37000 |
| Route | GUSAR UV30 AMLOD/N0450F380 UM998 LUSKA/N0451F370 UA410 SERAL DCT SABSA SABSA1D |
| Aircraft | B737/M-SDE2E3FGHIRWXY/LB1 |
Departure
| Time | N/A |
|---|---|
| Airport | Maya-Maya International Airport (FCBB) |
Arrival
| Time | 2026-04-17 21:36 |
|---|---|
| Airport | Bangui M'Poko International Airport (FEFF) |
| Time | Latitude | Longitude | Altitude | Speed | Heading |
|---|---|---|---|---|---|
| 2026-04-17 21:11 | 3.20416 | 18.08131 | 36831 ft | 466 kts | 21° |
| 2026-04-17 21:11 | 3.23480 | 18.09289 | 36832 ft | 466 kts | 21° |
| 2026-04-17 21:11 | 3.29508 | 18.11567 | 36834 ft | 466 kts | 21° |
| 2026-04-17 21:12 | 3.35577 | 18.13862 | 36835 ft | 466 kts | 21° |
| 2026-04-17 21:12 | 3.41639 | 18.16157 | 36810 ft | 461 kts | 21° |
| 2026-04-17 21:13 | 3.44602 | 18.17277 | 36550 ft | 451 kts | 21° |
| 2026-04-17 21:13 | 3.47523 | 18.18381 | 35992 ft | 449 kts | 22° |
| 2026-04-17 21:13 | 3.50467 | 18.19495 | 35013 ft | 456 kts | 22° |
| 2026-04-17 21:13 | 3.53419 | 18.20613 | 34033 ft | 463 kts | 22° |
| 2026-04-17 21:14 | 3.56450 | 18.21761 | 33099 ft | 468 kts | 22° |
| 2026-04-17 21:14 | 3.59507 | 18.22919 | 32186 ft | 471 kts | 22° |
| 2026-04-17 21:14 | 3.62575 | 18.24081 | 31325 ft | 472 kts | 22° |
| 2026-04-17 21:14 | 3.65649 | 18.25244 | 30442 ft | 472 kts | 22° |
| 2026-04-17 21:15 | 3.68722 | 18.26407 | 29481 ft | 473 kts | 22° |
| 2026-04-17 21:15 | 3.71806 | 18.27574 | 28475 ft | 473 kts | 22° |
| 2026-04-17 21:15 | 3.74884 | 18.28740 | 27429 ft | 473 kts | 22° |
| 2026-04-17 21:15 | 3.77967 | 18.29907 | 26313 ft | 473 kts | 22° |
| 2026-04-17 21:16 | 3.81002 | 18.31056 | 25217 ft | 472 kts | 22° |
| 2026-04-17 21:16 | 3.84055 | 18.32212 | 24384 ft | 465 kts | 23° |
| 2026-04-17 21:16 | 3.87041 | 18.33342 | 23668 ft | 454 kts | 23° |
| 2026-04-17 21:16 | 3.89970 | 18.34451 | 22834 ft | 446 kts | 23° |
| 2026-04-17 21:17 | 3.92867 | 18.35549 | 21634 ft | 446 kts | 23° |
| 2026-04-17 21:17 | 3.95772 | 18.36651 | 20481 ft | 446 kts | 22° |
| 2026-04-17 21:17 | 3.98659 | 18.37745 | 19533 ft | 440 kts | 22° |
| 2026-04-17 21:17 | 4.01498 | 18.38822 | 18653 ft | 433 kts | 22° |
| 2026-04-17 21:18 | 4.03355 | 18.39526 | 18065 ft | 428 kts | 22° |
| 2026-04-17 21:18 | 4.07009 | 18.40914 | 16837 ft | 420 kts | 22° |
| 2026-04-17 21:18 | 4.09723 | 18.41944 | 15910 ft | 415 kts | 22° |
| 2026-04-17 21:18 | 4.12408 | 18.42963 | 15020 ft | 410 kts | 21° |
| 2026-04-17 21:19 | 4.15053 | 18.43968 | 14122 ft | 404 kts | 21° |
| 2026-04-17 21:19 | 4.17661 | 18.44958 | 13223 ft | 399 kts | 21° |
| 2026-04-17 21:19 | 4.20232 | 18.45935 | 12341 ft | 393 kts | 22° |
| 2026-04-17 21:19 | 4.22611 | 18.47217 | 11481 ft | 387 kts | 40° |
| 2026-04-17 21:20 | 4.24227 | 18.49324 | 10600 ft | 383 kts | 66° |
| 2026-04-17 21:20 | 4.24729 | 18.51009 | 9978 ft | 381 kts | 83° |
| 2026-04-17 21:20 | 4.24160 | 18.54352 | 9584 ft | 358 kts | 109° |
| 2026-04-17 21:20 | 4.23809 | 18.56731 | 9413 ft | 340 kts | 84° |
| 2026-04-17 21:21 | 4.24612 | 18.58873 | 9292 ft | 326 kts | 55° |
| 2026-04-17 21:21 | 4.26319 | 18.60274 | 9181 ft | 316 kts | 25° |
| 2026-04-17 21:21 | 4.27712 | 18.60616 | 9111 ft | 310 kts | 4° |
| 2026-04-17 21:21 | 4.29756 | 18.60164 | 9007 ft | 300 kts | 331° |
| 2026-04-17 21:22 | 4.31255 | 18.58787 | 8939 ft | 288 kts | 307° |
| 2026-04-17 21:22 | 4.32371 | 18.57176 | 8850 ft | 274 kts | 303° |
| 2026-04-17 21:22 | 4.33469 | 18.55682 | 8721 ft | 259 kts | 310° |
| 2026-04-17 21:22 | 4.35129 | 18.54095 | 8442 ft | 244 kts | 326° |
| 2026-04-17 21:23 | 4.36561 | 18.53291 | 8337 ft | 227 kts | 337° |
| 2026-04-17 21:23 | 4.37988 | 18.52723 | 8124 ft | 218 kts | 343° |
| 2026-04-17 21:23 | 4.38959 | 18.52406 | 7910 ft | 217 kts | 344° |
| 2026-04-17 21:23 | 4.40383 | 18.51956 | 7490 ft | 221 kts | 344° |
| 2026-04-17 21:24 | 4.41947 | 18.51472 | 6607 ft | 251 kts | 344° |
| 2026-04-17 21:24 | 4.43708 | 18.50940 | 5663 ft | 277 kts | 344° |
| 2026-04-17 21:24 | 4.45601 | 18.50375 | 5056 ft | 287 kts | 344° |
| 2026-04-17 21:24 | 4.47508 | 18.49807 | 4680 ft | 285 kts | 343° |
| 2026-04-17 21:25 | 4.49202 | 18.48827 | 4275 ft | 284 kts | 311° |
| 2026-04-17 21:25 | 4.50044 | 18.47078 | 4223 ft | 283 kts | 277° |
| 2026-04-17 21:25 | 4.49810 | 18.45160 | 4152 ft | 277 kts | 246° |
| 2026-04-17 21:25 | 4.48845 | 18.43555 | 3825 ft | 272 kts | 228° |
| 2026-04-17 21:26 | 4.47387 | 18.42357 | 3632 ft | 273 kts | 207° |
| 2026-04-17 21:26 | 4.45588 | 18.41743 | 3597 ft | 275 kts | 185° |
| 2026-04-17 21:26 | 4.43705 | 18.41826 | 3604 ft | 270 kts | 170° |
| 2026-04-17 21:26 | 4.41857 | 18.42140 | 3598 ft | 268 kts | 168° |
| 2026-04-17 21:27 | 4.40027 | 18.42483 | 3591 ft | 269 kts | 168° |
| 2026-04-17 21:27 | 4.38190 | 18.42827 | 3583 ft | 269 kts | 168° |
| 2026-04-17 21:27 | 4.36352 | 18.43166 | 3594 ft | 269 kts | 168° |
| 2026-04-17 21:27 | 4.34505 | 18.43503 | 3597 ft | 269 kts | 168° |
| 2026-04-17 21:28 | 4.32687 | 18.43829 | 3597 ft | 269 kts | 168° |
| 2026-04-17 21:28 | 4.30843 | 18.44159 | 3599 ft | 269 kts | 168° |
| 2026-04-17 21:28 | 4.28998 | 18.44487 | 3589 ft | 271 kts | 169° |
| 2026-04-17 21:28 | 4.27145 | 18.44812 | 3599 ft | 270 kts | 169° |
| 2026-04-17 21:29 | 4.25291 | 18.45138 | 3600 ft | 270 kts | 169° |
| 2026-04-17 21:29 | 4.23434 | 18.45465 | 3592 ft | 272 kts | 169° |
| 2026-04-17 21:29 | 4.21579 | 18.45790 | 3599 ft | 269 kts | 169° |
| 2026-04-17 21:29 | 4.19790 | 18.46159 | 3576 ft | 254 kts | 158° |
| 2026-04-17 21:30 | 4.18505 | 18.47220 | 3588 ft | 235 kts | 118° |
| 2026-04-17 21:30 | 4.18250 | 18.48730 | 3584 ft | 221 kts | 76° |
| 2026-04-17 21:30 | 4.18931 | 18.50063 | 3611 ft | 214 kts | 60° |
| 2026-04-17 21:30 | 4.19287 | 18.51459 | 3621 ft | 203 kts | 91° |
| 2026-04-17 21:31 | 4.19356 | 18.52843 | 3598 ft | 194 kts | 84° |
| 2026-04-17 21:31 | 4.19693 | 18.54123 | 3585 ft | 189 kts | 67° |
| 2026-04-17 21:31 | 4.20407 | 18.55208 | 3600 ft | 186 kts | 47° |
| 2026-04-17 21:31 | 4.21433 | 18.55948 | 3584 ft | 180 kts | 23° |
| 2026-04-17 21:32 | 4.22653 | 18.56017 | 3635 ft | 179 kts | 355° |
| 2026-04-17 21:32 | 4.23902 | 18.55874 | 3614 ft | 178 kts | 354° |
| 2026-04-17 21:32 | 4.25087 | 18.55714 | 3581 ft | 166 kts | 353° |
| 2026-04-17 21:32 | 4.26195 | 18.55501 | 3607 ft | 164 kts | 349° |
| 2026-04-17 21:33 | 4.27312 | 18.55229 | 3478 ft | 164 kts | 347° |
| 2026-04-17 21:33 | 4.28380 | 18.54954 | 3295 ft | 153 kts | 347° |
| 2026-04-17 21:33 | 4.29380 | 18.54693 | 3104 ft | 144 kts | 347° |
| 2026-04-17 21:33 | 4.30342 | 18.54442 | 2949 ft | 142 kts | 347° |
| 2026-04-17 21:34 | 4.31306 | 18.54191 | 2739 ft | 143 kts | 347° |
| 2026-04-17 21:34 | 4.32250 | 18.53941 | 2551 ft | 139 kts | 347° |
| 2026-04-17 21:34 | 4.34108 | 18.53457 | 2195 ft | 138 kts | 346° |
| 2026-04-17 21:35 | 4.35032 | 18.53212 | 2000 ft | 136 kts | 346° |
| 2026-04-17 21:35 | 4.35956 | 18.52975 | 1823 ft | 138 kts | 345° |
| 2026-04-17 21:35 | 4.36876 | 18.52733 | 1638 ft | 136 kts | 346° |
| 2026-04-17 21:35 | 4.37786 | 18.52494 | 1465 ft | 135 kts | 346° |
| 2026-04-17 21:36 | 4.38703 | 18.52254 | 1282 ft | 137 kts | 345° |
| 2026-04-17 21:36 | 4.39597 | 18.52021 | 1201 ft | 122 kts | 345° |
| 2026-04-17 21:36 | 4.40298 | 18.51837 | 1207 ft | 86 kts | 345° |
| 2026-04-17 21:36 | 4.40761 | 18.51720 | 1212 ft | 44 kts | 345° |
| 2026-04-17 21:37 | 4.40922 | 18.51676 | 1215 ft | 16 kts | 344° |
| 2026-04-17 21:37 | 4.40949 | 18.51668 | 1215 ft | 3 kts | 343° |
| 2026-04-17 21:37 | 4.41023 | 18.51669 | 1216 ft | 18 kts | 27° |
| 2026-04-17 21:37 | 4.41053 | 18.51648 | 1216 ft | 11 kts | 213° |
| 2026-04-17 21:38 | 4.40945 | 18.51675 | 1215 ft | 22 kts | 161° |
| 2026-04-17 21:38 | 4.40782 | 18.51718 | 1212 ft | 26 kts | 165° |
| 2026-04-17 21:38 | 4.40591 | 18.51765 | 1210 ft | 30 kts | 168° |
| 2026-04-17 21:38 | 4.40378 | 18.51819 | 1207 ft | 33 kts | 166° |
| 2026-04-17 21:39 | 4.40151 | 18.51881 | 1206 ft | 35 kts | 165° |
| 2026-04-17 21:39 | 4.39905 | 18.51942 | 1204 ft | 31 kts | 166° |
| 2026-04-17 21:39 | 4.39789 | 18.52000 | 1204 ft | 11 kts | 129° |
| 2026-04-17 21:39 | 4.39794 | 18.52071 | 1202 ft | 11 kts | 72° |
| 2026-04-17 21:40 | 4.39812 | 18.52141 | 1202 ft | 10 kts | 79° |
| 2026-04-17 21:40 | 4.39832 | 18.52208 | 1202 ft | 10 kts | 72° |
| 2026-04-17 21:40 | 4.39860 | 18.52268 | 1202 ft | 8 kts | 39° |
| 2026-04-17 21:40 | 4.39907 | 18.52269 | 1202 ft | 10 kts | 351° |
| 2026-04-17 21:41 | 4.39972 | 18.52265 | 1203 ft | 10 kts | 39° |
| 2026-04-17 21:41 | 4.39980 | 18.52305 | 1203 ft | 3 kts | 142° |
| 2026-04-17 21:41 | 4.39954 | 18.52291 | 1202 ft | 6 kts | 217° |
| 2026-04-17 21:41 | 4.39941 | 18.52281 | 1202 ft | 0 kts | 216° |